Time;durP1;ratioP1;P1;durP2;ratioP2;P2;SDS_P1;SDS_P2;PMS_P1;PMS_P2;Temp;Humidity;BMP_temperature;BMP_pressure;BME280_temperature;BME280_humidity;BME280_pressure;Samples;Min_cycle;Max_cycle;Signal;HPM_P1;HPM_P2
2023/12/16 00:00:36;;;;;;;;;;;;;;;16.62;46.17;101961.31;4964629;28;1967;-49
2023/12/16 00:03:01;;;;;;;;;;;;;;;16.83;45.37;101960.22;4972195;28;1971;-54
2023/12/16 00:05:27;;;;;;;;;;;;;;;16.10;47.34;101967.59;4969409;28;1113;-54
2023/12/16 00:07:52;;;;;;;;;;;;;;;15.66;47.86;101967.91;4966254;28;1056;-50
2023/12/16 00:10:18;;;;;;;;;;;;;;;15.52;48.74;101973.03;4966982;28;1148;-53
2023/12/16 00:12:43;;;;;;;;;;;;;;;16.97;45.33;101972.75;4960016;28;1053;-54
2023/12/16 00:15:10;;;;;;;;;;;;;;;16.53;46.04;101970.63;4972631;28;1141;-49
2023/12/16 00:17:35;;;;;;;;;;;;;;;15.98;47.15;101969.03;4963030;28;1312;-51
2023/12/16 00:20:01;;;;;;;;;;;;;;;15.66;48.09;101969.72;4966118;28;1172;-48
2023/12/16 00:22:26;;;;;;;;;;;;;;;17.05;45.10;101975.84;4965760;28;1983;-50
2023/12/16 00:24:52;;;;;;;;;;;;;;;16.65;45.69;101978.88;4979142;28;1033;-49
2023/12/16 00:27:17;;;;;;;;;;;;;;;15.99;47.11;101984.91;4965870;28;1127;-52
2023/12/16 00:29:43;;;;;;;;;;;;;;;15.67;48.00;101984.69;4975310;28;2300;-51
2023/12/16 00:32:08;;;;;;;;;;;;;;;15.65;48.44;101987.41;4977935;28;1088;-52
2023/12/16 00:34:34;;;;;;;;;;;;;;;17.06;44.83;101966.94;4978884;28;1155;-52
2023/12/16 00:37:00;;;;;;;;;;;;;;;16.79;45.21;101975.47;4977806;28;1083;-52
2023/12/16 00:39:27;;;;;;;;;;;;;;;16.08;47.06;101978.25;4967753;28;1184;-53
2023/12/16 00:41:53;;;;;;;;;;;;;;;15.70;47.81;101970.41;4972617;28;1137;-53
2023/12/16 00:44:18;;;;;;;;;;;;;;;16.45;46.35;101964.03;4970276;28;1914;-52
2023/12/16 00:46:44;;;;;;;;;;;;;;;16.95;45.02;101967.53;4978267;28;1107;-55
2023/12/16 00:49:09;;;;;;;;;;;;;;;16.12;46.78;101953.28;4978814;28;1071;-51
2023/12/16 00:51:35;;;;;;;;;;;;;;;15.74;47.76;101961.34;4973829;28;1092;-53
2023/12/16 00:54:00;;;;;;;;;;;;;;;15.54;48.51;101960.56;4966350;28;1046;-54
2023/12/16 00:56:26;;;;;;;;;;;;;;;17.04;45.05;101949.34;4963418;28;1042;-49
2023/12/16 00:58:54;;;;;;;;;;;;;;;16.59;45.76;101961.47;4978700;28;1215;-53
2023/12/16 01:01:19;;;;;;;;;;;;;;;15.97;47.33;101962.84;4969487;28;2439;-51
2023/12/16 01:03:45;;;;;;;;;;;;;;;15.64;47.97;101953.88;4979017;28;1983;-53
2023/12/16 01:06:10;;;;;;;;;;;;;;;16.46;46.40;101963.06;4977740;28;1123;-53
2023/12/16 01:08:36;;;;;;;;;;;;;;;16.81;45.26;101956.78;4978325;28;1000;-53
2023/12/16 01:11:01;;;;;;;;;;;;;;;16.07;47.25;101965.06;4977922;28;1066;-53
2023/12/16 01:13:27;;;;;;;;;;;;;;;15.66;47.56;101965.25;4977031;28;1080;-53
2023/12/16 01:15:52;;;;;;;;;;;;;;;15.60;48.24;101964.72;4965647;28;1057;-49
2023/12/16 01:18:18;;;;;;;;;;;;;;;17.03;44.94;101956.47;4972678;28;1157;-50
2023/12/16 01:20:44;;;;;;;;;;;;;;;16.58;45.56;101961.56;4973918;28;1052;-52
2023/12/16 01:23:09;;;;;;;;;;;;;;;15.95;46.87;101951.44;4969468;28;1989;-51
2023/12/16 01:25:34;;;;;;;;;;;;;;;15.54;47.96;101958.78;4977753;28;1037;-53
2023/12/16 01:28:00;;;;;;;;;;;;;;;16.39;46.43;101954.56;4977676;28;1069;-52
2023/12/16 01:30:25;;;;;;;;;;;;;;;17.11;44.22;101966.72;4976085;28;2431;-52
2023/12/16 01:32:51;;;;;;;;;;;;;;;16.08;46.77;101957.00;4977957;28;1147;-53
2023/12/16 01:35:17;;;;;;;;;;;;;;;15.69;47.46;101966.91;4978082;28;978;-52
2023/12/16 01:37:42;;;;;;;;;;;;;;;15.54;48.07;101965.88;4967801;28;1140;-54
2023/12/16 01:40:08;;;;;;;;;;;;;;;16.99;44.80;101968.22;4961693;28;1097;-52
2023/12/16 01:42:34;;;;;;;;;;;;;;;16.57;45.50;101971.31;4971482;28;1906;-49
2023/12/16 01:44:59;;;;;;;;;;;;;;;15.91;47.01;101977.28;4974682;28;1156;-51
2023/12/16 01:47:25;;;;;;;;;;;;;;;15.58;47.51;101982.50;4977338;28;1028;-51
2023/12/16 01:49:51;;;;;;;;;;;;;;;16.45;45.99;101985.28;4977368;28;1092;-50
2023/12/16 01:52:16;;;;;;;;;;;;;;;17.14;44.37;101974.50;4977282;28;1045;-51
2023/12/16 01:54:42;;;;;;;;;;;;;;;16.13;46.13;101970.06;4965579;28;1126;-51
2023/12/16 01:57:08;;;;;;;;;;;;;;;15.82;47.01;101966.28;4977844;28;1048;-50
2023/12/16 01:59:33;;;;;;;;;;;;;;;16.31;46.43;101962.09;4976818;28;1096;-53
2023/12/16 02:01:59;;;;;;;;;;;;;;;17.17;44.07;101963.69;4968519;28;2528;-50
2023/12/16 02:04:25;;;;;;;;;;;;;;;16.20;46.29;101973.28;4976566;28;1918;-50
2023/12/16 02:06:50;;;;;;;;;;;;;;;15.76;47.18;101970.97;4973786;28;1153;-53
2023/12/16 02:09:18;;;;;;;;;;;;;;;15.52;47.95;101984.50;4973662;28;1077;-49
2023/12/16 02:11:43;;;;;;;;;;;;;;;16.97;44.66;101970.09;4968288;28;1093;-53
2023/12/16 02:14:09;;;;;;;;;;;;;;;16.60;45.02;101970.31;4976885;28;1077;-50
2023/12/16 02:16:35;;;;;;;;;;;;;;;15.95;46.50;101972.69;4976589;28;1079;-49
2023/12/16 02:19:01;;;;;;;;;;;;;;;15.59;47.38;101981.53;4964080;28;1096;-51
2023/12/16 02:21:27;;;;;;;;;;;;;;;16.93;44.95;101973.88;4967483;28;1022;-51
2023/12/16 02:23:52;;;;;;;;;;;;;;;16.76;44.71;101979.19;4960839;28;1984;-53
2023/12/16 02:26:18;;;;;;;;;;;;;;;16.05;46.36;101982.88;4967027;28;1120;-50
2023/12/16 02:28:43;;;;;;;;;;;;;;;15.66;47.49;101994.41;4960898;28;1121;-52
2023/12/16 02:31:09;;;;;;;;;;;;;;;15.57;47.93;102001.97;4959638;28;2776;-52
2023/12/16 02:33:34;;;;;;;;;;;;;;;17.04;44.40;102005.16;4960129;28;1061;-54
2023/12/16 02:36:00;;;;;;;;;;;;;;;16.84;44.62;102012.44;4976989;28;1044;-51
2023/12/16 02:38:25;;;;;;;;;;;;;;;16.08;46.20;102017.22;4976648;28;1097;-51
2023/12/16 02:40:51;;;;;;;;;;;;;;;15.73;47.24;102026.81;4976733;28;1145;-52
2023/12/16 02:43:17;;;;;;;;;;;;;;;15.47;47.65;102036.91;4971520;28;1934;-52
2023/12/16 02:45:42;;;;;;;;;;;;;;;16.89;44.84;102034.31;4966847;28;1122;-54
2023/12/16 02:48:07;;;;;;;;;;;;;;;16.84;44.41;102039.00;4960564;28;1056;-52
2023/12/16 02:50:33;;;;;;;;;;;;;;;16.04;46.09;102043.06;4967306;28;1208;-52
2023/12/16 02:52:59;;;;;;;;;;;;;;;15.72;46.92;102054.28;4973266;28;1057;-53
2023/12/16 02:55:25;;;;;;;;;;;;;;;15.66;47.66;102046.63;4968151;28;997;-50
2023/12/16 02:57:50;;;;;;;;;;;;;;;17.12;43.95;102040.19;4957625;28;1092;-53
2023/12/16 03:00:16;;;;;;;;;;;;;;;16.41;45.49;102040.34;4956884;28;1899;-50
2023/12/16 03:02:41;;;;;;;;;;;;;;;15.88;46.63;102050.91;4966804;28;1911;-51
2023/12/16 03:05:07;;;;;;;;;;;;;;;15.58;47.31;102056.75;4966093;28;1053;-51
2023/12/16 03:07:33;;;;;;;;;;;;;;;16.83;44.85;102047.94;4967851;28;1092;-51
2023/12/16 03:09:58;;;;;;;;;;;;;;;16.85;44.39;102057.53;4966648;28;1124;-53
2023/12/16 03:12:24;;;;;;;;;;;;;;;16.11;46.23;102059.53;4971341;28;1056;-52
2023/12/16 03:14:50;;;;;;;;;;;;;;;15.71;46.77;102062.31;4956628;28;1145;-53
2023/12/16 03:17:16;;;;;;;;;;;;;;;15.83;47.10;102064.38;4960689;28;1032;-53
2023/12/16 03:19:41;;;;;;;;;;;;;;;17.20;43.58;102064.56;4957963;28;1025;-52
2023/12/16 03:22:07;;;;;;;;;;;;;;;16.37;45.24;102073.28;4959893;28;1051;-47
2023/12/16 03:24:33;;;;;;;;;;;;;;;15.78;46.89;102082.34;4967100;28;1898;-51
2023/12/16 03:26:58;;;;;;;;;;;;;;;15.61;47.28;102077.81;4956888;28;1097;-53
2023/12/16 03:29:24;;;;;;;;;;;;;;;17.04;44.00;102072.50;4966238;28;982;-49
2023/12/16 03:31:49;;;;;;;;;;;;;;;16.42;44.95;102076.56;4967648;28;2776;-47
2023/12/16 03:34:15;;;;;;;;;;;;;;;15.87;46.62;102073.03;4976409;28;1029;-50
2023/12/16 03:36:40;;;;;;;;;;;;;;;15.53;47.13;102075.56;4975865;28;1093;-50
2023/12/16 03:39:07;;;;;;;;;;;;;;;16.63;45.09;102079.06;4969046;28;1161;-49
2023/12/16 03:41:34;;;;;;;;;;;;;;;17.12;43.74;102077.44;4966977;28;1172;-50
2023/12/16 03:44:00;;;;;;;;;;;;;;;16.15;45.88;102083.19;4978355;28;1902;-53
2023/12/16 03:46:26;;;;;;;;;;;;;;;15.71;46.59;102089.72;4979558;28;1017;-50
2023/12/16 03:48:52;;;;;;;;;;;;;;;15.72;47.03;102088.78;4980036;28;1036;-52
2023/12/16 03:51:20;;;;;;;;;;;;;;;17.22;43.47;102091.94;4979178;28;1014;-51
2023/12/16 03:53:45;;;;;;;;;;;;;;;16.35;44.95;102096.44;4957921;28;1712;-51
2023/12/16 03:56:11;;;;;;;;;;;;;;;15.90;46.59;102102.97;4962188;28;1025;-50
2023/12/16 03:58:36;;;;;;;;;;;;;;;15.53;47.27;102115.34;4978944;28;1457;-54
2023/12/16 04:01:02;;;;;;;;;;;;;;;16.85;44.43;102110.69;4969915;28;1871;-51
2023/12/16 04:03:27;;;;;;;;;;;;;;;16.75;44.28;102115.63;4971574;28;1907;-51
2023/12/16 04:05:53;;;;;;;;;;;;;;;16.00;45.84;102110.50;4972964;28;1151;-48
2023/12/16 04:08:18;;;;;;;;;;;;;;;15.62;46.89;102121.97;4970041;28;854;-53
2023/12/16 04:10:44;;;;;;;;;;;;;;;15.39;47.30;102116.81;4966206;28;1131;-51
2023/12/16 04:13:09;;;;;;;;;;;;;;;16.65;45.00;102120.56;4970570;28;1153;-51
2023/12/16 04:15:35;;;;;;;;;;;;;;;16.95;43.89;102120.84;4961753;28;1045;-51
2023/12/16 04:18:00;;;;;;;;;;;;;;;16.07;45.88;102129.63;4963230;28;1486;-51
2023/12/16 04:20:26;;;;;;;;;;;;;;;15.68;46.63;102134.97;4970245;28;998;-45
2023/12/16 04:22:51;;;;;;;;;;;;;;;16.52;44.83;102140.72;4978734;28;1898;-50
2023/12/16 04:25:17;;;;;;;;;;;;;;;17.32;43.09;102148.16;4978981;28;1020;-51
2023/12/16 04:27:42;;;;;;;;;;;;;;;16.28;45.28;102139.19;4965837;28;1243;-52
2023/12/16 04:30:08;;;;;;;;;;;;;;;15.83;46.08;102149.28;4962809;28;1855;-51
2023/12/16 04:32:33;;;;;;;;;;;;;;;15.66;46.64;102153.59;4972499;28;921;-51
2023/12/16 04:34:59;;;;;;;;;;;;;;;17.10;43.74;102157.28;4953894;28;1256;-52
2023/12/16 04:37:24;;;;;;;;;;;;;;;16.39;45.06;102162.59;4959326;28;1496;-53
2023/12/16 04:39:50;;;;;;;;;;;;;;;15.83;46.10;102157.25;4959498;28;1238;-51
2023/12/16 04:42:16;;;;;;;;;;;;;;;15.58;46.91;102155.75;4963484;28;1042;-53
2023/12/16 04:44:41;;;;;;;;;;;;;;;16.28;45.88;102163.09;4974033;28;1915;-54
2023/12/16 04:47:07;;;;;;;;;;;;;;;17.01;43.59;102155.09;4959086;28;1053;-52
2023/12/16 04:49:32;;;;;;;;;;;;;;;16.16;45.61;102169.03;4973323;28;1056;-52
2023/12/16 04:51:58;;;;;;;;;;;;;;;15.69;46.55;102176.47;4978585;28;1088;-54
2023/12/16 04:54:23;;;;;;;;;;;;;;;15.42;47.35;102171.50;4965965;28;1117;-52
2023/12/16 04:56:50;;;;;;;;;;;;;;;16.51;45.01;102182.38;4975528;28;856;-49
2023/12/16 04:59:15;;;;;;;;;;;;;;;16.93;43.56;102178.53;4977893;28;1056;-50
2023/12/16 05:01:41;;;;;;;;;;;;;;;16.07;45.50;102193.34;4961765;28;2694;-50
2023/12/16 05:04:07;;;;;;;;;;;;;;;15.64;46.49;102187.31;4973714;28;1922;-46
2023/12/16 05:06:32;;;;;;;;;;;;;;;16.33;45.38;102197.41;4969875;28;1080;-49
2023/12/16 05:08:58;;;;;;;;;;;;;;;17.21;42.97;102201.94;4963578;28;1116;-51
2023/12/16 05:11:23;;;;;;;;;;;;;;;16.20;45.16;102204.25;4969609;28;1140;-52
2023/12/16 05:13:49;;;;;;;;;;;;;;;15.79;46.11;102208.75;4973226;28;1136;-53
2023/12/16 05:16:18;;;;;;;;;;;;;;;15.56;47.05;102215.97;4969930;28;1077;-54
2023/12/16 05:18:44;;;;;;;;;;;;;;;15.74;46.86;102213.41;4973420;28;1435;-51
2023/12/16 05:21:09;;;;;;;;;;;;;;;17.12;43.60;102213.91;4956436;28;905;-52
2023/12/16 05:23:35;;;;;;;;;;;;;;;16.43;44.70;102220.88;4969332;28;1919;-53
2023/12/16 05:26:00;;;;;;;;;;;;;;;15.88;46.23;102212.78;4969413;28;1220;-53
2023/12/16 05:28:26;;;;;;;;;;;;;;;17.34;43.23;102215.44;4961094;28;1021;-51
2023/12/16 05:30:51;;;;;;;;;;;;;;;15.77;46.23;102218.56;4976549;28;2534;-53
2023/12/16 05:33:16;;;;;;;;;;;;;;;16.38;45.99;102229.06;4966250;28;1011;-52
2023/12/16 05:35:42;;;;;;;;;;;;;;;16.63;44.87;102230.53;4969124;28;1137;-54
2023/12/16 05:38:08;;;;;;;;;;;;;;;15.58;46.74;102234.47;4971684;28;1005;-51
2023/12/16 05:40:33;;;;;;;;;;;;;;;16.49;45.79;102226.75;4970534;28;1219;-53
2023/12/16 05:42:59;;;;;;;;;;;;;;;16.26;45.60;102220.75;4972408;28;1918;-53
2023/12/16 05:45:24;;;;;;;;;;;;;;;16.01;46.55;102229.03;4971185;28;893;-53
2023/12/16 05:47:49;;;;;;;;;;;;;;;17.68;42.79;102222.56;4975905;28;1036;-50
2023/12/16 05:50:15;;;;;;;;;;;;;;;16.12;46.13;102242.66;4965275;28;1069;-53
2023/12/16 05:52:40;;;;;;;;;;;;;;;17.06;44.50;102240.78;4964036;28;1247;-52
2023/12/16 05:55:06;;;;;;;;;;;;;;;16.91;44.32;102250.41;4965213;28;1127;-50
2023/12/16 05:57:32;;;;;;;;;;;;;;;16.13;46.62;102241.69;4963335;28;1017;-53
2023/12/16 05:59:57;;;;;;;;;;;;;;;18.01;42.42;102231.44;4959131;28;2362;-52
2023/12/16 06:02:23;;;;;;;;;;;;;;;16.39;45.20;102252.91;4951788;28;1057;-54
2023/12/16 06:04:49;;;;;;;;;;;;;;;15.94;46.24;102246.13;4970667;28;1910;-52
2023/12/16 06:07:14;;;;;;;;;;;;;;;16.85;44.51;102238.25;4958127;28;1061;-52
2023/12/16 06:09:39;;;;;;;;;;;;;;;16.86;45.01;102252.44;4962935;28;905;-54
2023/12/16 06:12:05;;;;;;;;;;;;;;;18.51;41.24;102250.88;4957992;28;999;-52
2023/12/16 06:14:31;;;;;;;;;;;;;;;17.13;43.86;102255.50;4964534;28;1064;-52
2023/12/16 06:16:56;;;;;;;;;;;;;;;16.27;45.49;102262.31;4976604;28;1092;-52
2023/12/16 06:19:22;;;;;;;;;;;;;;;17.82;42.73;102270.56;4964374;28;1048;-53
2023/12/16 06:21:47;;;;;;;;;;;;;;;16.42;45.27;102270.47;4962892;28;931;-51
2023/12/16 06:24:13;;;;;;;;;;;;;;;16.16;46.04;102283.19;4945229;28;1981;-46
2023/12/16 06:26:38;;;;;;;;;;;;;;;17.01;44.37;102286.22;4970697;28;1089;-50
2023/12/16 06:29:04;;;;;;;;;;;;;;;16.12;45.77;102286.91;4964333;28;1130;-50
2023/12/16 06:31:29;;;;;;;;;;;;;;;17.21;44.45;102299.47;4961539;28;2590;-49
2023/12/16 06:33:55;;;;;;;;;;;;;;;16.43;45.56;102297.91;4968255;28;1192;-49
2023/12/16 06:36:20;;;;;;;;;;;;;;;16.24;46.46;102298.75;4965825;28;1077;-54
2023/12/16 06:38:45;;;;;;;;;;;;;;;17.34;43.84;102313.84;4976148;28;1128;-50
2023/12/16 06:41:11;;;;;;;;;;;;;;;16.21;45.82;102320.16;4976706;28;1071;-52
2023/12/16 06:43:37;;;;;;;;;;;;;;;17.20;44.46;102317.22;4945307;28;1911;-53
2023/12/16 06:46:02;;;;;;;;;;;;;;;16.62;45.29;102321.78;4960102;28;909;-53
2023/12/16 06:48:28;;;;;;;;;;;;;;;15.98;45.57;102322.03;4969964;28;1154;-48
2023/12/16 06:50:57;;;;;;;;;;;;;;;17.49;43.50;102325.50;4969749;28;1208;-52
2023/12/16 06:53:23;;;;;;;;;;;;;;;16.15;45.76;102319.50;4963281;28;1163;-51
2023/12/16 06:55:48;;;;;;;;;;;;;;;17.70;43.12;102333.31;4970622;28;1184;-50
2023/12/16 06:58:14;;;;;;;;;;;;;;;17.01;44.15;102336.72;4976216;28;1036;-50
2023/12/16 07:00:40;;;;;;;;;;;;;;;16.21;45.78;102336.94;4968403;28;2307;-52
2023/12/16 07:03:05;;;;;;;;;;;;;;;17.44;43.85;102337.31;4970073;28;1910;-49
2023/12/16 07:05:34;;;;;;;;;;;;;;;16.40;45.15;102344.03;4957247;28;1069;-52
2023/12/16 07:07:59;;;;;;;;;;;;;;;17.66;43.43;102354.84;4957059;28;1097;-55
2023/12/16 07:10:25;;;;;;;;;;;;;;;17.59;42.95;102365.81;4961586;28;932;-52
2023/12/16 07:12:50;;;;;;;;;;;;;;;16.65;44.69;102361.47;4979374;28;1134;-52
2023/12/16 07:15:16;;;;;;;;;;;;;;;16.25;46.08;102358.88;4979879;28;1020;-52
2023/12/16 07:17:41;;;;;;;;;;;;;;;16.92;44.47;102368.19;4979803;28;1163;-51
2023/12/16 07:20:07;;;;;;;;;;;;;;;16.34;46.47;102370.88;4980252;28;1029;-51
2023/12/16 07:22:33;;;;;;;;;;;;;;;18.26;42.10;102371.28;4968360;28;1119;-51
2023/12/16 07:24:58;;;;;;;;;;;;;;;16.80;44.61;102369.69;4979785;28;1898;-52
2023/12/16 07:27:24;;;;;;;;;;;;;;;16.23;45.51;102371.41;4974581;28;1022;-51
2023/12/16 07:29:50;;;;;;;;;;;;;;;17.04;44.80;102369.41;4960763;29;2529;-51
2023/12/16 07:32:16;;;;;;;;;;;;;;;16.68;44.99;102379.97;4979099;28;1235;-51
2023/12/16 07:34:41;;;;;;;;;;;;;;;16.06;45.62;102378.31;4974775;28;1201;-50
2023/12/16 07:37:07;;;;;;;;;;;;;;;17.45;43.41;102377.16;4967080;28;1168;-50
2023/12/16 07:39:32;;;;;;;;;;;;;;;16.28;45.56;102390.63;4967612;28;1178;-52
2023/12/16 07:41:58;;;;;;;;;;;;;;;17.52;43.70;102393.66;4978811;28;1148;-49
2023/12/16 07:44:24;;;;;;;;;;;;;;;16.96;44.33;102391.06;4978940;28;1903;-51
2023/12/16 07:46:49;;;;;;;;;;;;;;;16.17;45.77;102385.78;4967089;28;1076;-50
2023/12/16 07:49:17;;;;;;;;;;;;;;;16.45;45.94;102400.47;4980170;28;1076;-50
2023/12/16 07:51:43;;;;;;;;;;;;;;;16.77;44.96;102405.22;4980052;28;1155;-50
2023/12/16 07:54:08;;;;;;;;;;;;;;;16.77;45.50;102406.09;4968054;28;1227;-53
2023/12/16 07:56:34;;;;;;;;;;;;;;;18.45;41.57;102411.94;4966242;28;1204;-51
2023/12/16 07:58:59;;;;;;;;;;;;;;;16.74;44.71;102405.38;4961174;28;883;-47
2023/12/16 08:01:25;;;;;;;;;;;;;;;16.27;45.81;102411.00;4970453;28;2447;-47
2023/12/16 08:03:50;;;;;;;;;;;;;;;17.04;44.31;102407.50;4967706;28;1977;-54
2023/12/16 08:06:16;;;;;;;;;;;;;;;16.29;45.50;102405.63;4978729;28;1152;-50
2023/12/16 08:08:42;;;;;;;;;;;;;;;17.46;43.90;102410.81;4979207;28;1065;-52
2023/12/16 08:11:08;;;;;;;;;;;;;;;16.41;45.52;102420.16;4979041;28;1092;-50
2023/12/16 08:13:33;;;;;;;;;;;;;;;16.35;45.99;102418.63;4979807;28;1128;-53
2023/12/16 08:15:59;;;;;;;;;;;;;;;17.36;43.39;102425.50;4960451;28;1164;-53
2023/12/16 08:18:25;;;;;;;;;;;;;;;16.26;45.36;102424.38;4971943;28;1153;-48
2023/12/16 08:20:50;;;;;;;;;;;;;;;17.06;44.96;102429.56;4966411;28;1156;-51
2023/12/16 08:23:16;;;;;;;;;;;;;;;16.57;45.14;102430.94;4959522;28;1905;-49
2023/12/16 08:25:41;;;;;;;;;;;;;;;17.26;44.26;102427.75;4965136;28;1069;-51
2023/12/16 08:28:07;;;;;;;;;;;;;;;18.16;41.92;102432.16;4967636;28;1133;-51
2023/12/16 08:30:33;;;;;;;;;;;;;;;16.64;44.77;102439.47;4965303;28;1943;-51
2023/12/16 08:32:58;;;;;;;;;;;;;;;16.20;45.42;102436.09;4979125;28;1040;-53
2023/12/16 08:35:24;;;;;;;;;;;;;;;17.69;43.09;102439.84;4964739;28;842;-50
2023/12/16 08:37:49;;;;;;;;;;;;;;;16.36;45.58;102432.78;4967527;28;1093;-52
2023/12/16 08:40:15;;;;;;;;;;;;;;;15.97;46.13;102443.25;4963973;28;1281;-52
2023/12/16 08:42:42;;;;;;;;;;;;;;;16.72;45.09;102436.47;4974146;28;1975;-50
2023/12/16 08:45:08;;;;;;;;;;;;;;;15.98;45.66;102437.03;4976191;28;1074;-49
2023/12/16 08:47:34;;;;;;;;;;;;;;;17.68;43.50;102443.47;4959112;28;1017;-54
2023/12/16 08:49:59;;;;;;;;;;;;;;;16.48;45.18;102439.34;4971900;28;1147;-54
2023/12/16 08:52:26;;;;;;;;;;;;;;;15.99;45.70;102437.91;4970262;28;1100;-53
2023/12/16 08:54:52;;;;;;;;;;;;;;;17.47;43.75;102428.50;4978163;28;1155;-53
2023/12/16 08:57:17;;;;;;;;;;;;;;;16.29;45.64;102426.88;4977308;28;1088;-51
2023/12/16 08:59:43;;;;;;;;;;;;;;;17.61;43.44;102427.81;4962049;28;2249;-49
2023/12/16 09:02:08;;;;;;;;;;;;;;;17.67;42.67;102412.44;4969312;28;1040;-51
2023/12/16 09:04:34;;;;;;;;;;;;;;;16.47;45.20;102419.88;4978254;28;1902;-52
2023/12/16 09:06:59;;;;;;;;;;;;;;;16.50;45.58;102421.50;4968372;28;1048;-52
2023/12/16 09:09:25;;;;;;;;;;;;;;;16.71;45.12;102418.81;4973205;28;1014;-50
2023/12/16 09:11:50;;;;;;;;;;;;;;;16.06;45.60;102410.19;4959184;28;1069;-53
2023/12/16 09:14:16;;;;;;;;;;;;;;;17.86;42.78;102415.91;4975410;28;1105;-52
2023/12/16 09:16:42;;;;;;;;;;;;;;;16.49;45.26;102412.69;4968113;28;1144;-49
2023/12/16 09:19:08;;;;;;;;;;;;;;;16.10;45.89;102409.09;4971255;28;1080;-50
2023/12/16 09:21:34;;;;;;;;;;;;;;;17.25;43.72;102416.25;4967414;28;1105;-54
2023/12/16 09:23:59;;;;;;;;;;;;;;;16.26;45.33;102411.09;4974685;28;1898;-51
2023/12/16 09:26:25;;;;;;;;;;;;;;;15.84;45.69;102413.75;4978550;28;1096;-54
2023/12/16 09:28:50;;;;;;;;;;;;;;;17.52;43.94;102414.94;4965216;28;1010;-55
2023/12/16 09:31:16;;;;;;;;;;;;;;;16.42;45.52;102418.34;4962482;28;2691;-56
2023/12/16 09:33:42;;;;;;;;;;;;;;;17.01;44.83;102410.31;4971271;28;1543;-55
2023/12/16 09:36:11;;;;;;;;;;;;;;;17.57;43.06;102406.72;4968709;28;1036;-54
2023/12/16 09:38:36;;;;;;;;;;;;;;;16.28;45.61;102403.91;4964243;28;1187;-56
2023/12/16 09:41:02;;;;;;;;;;;;;;;15.86;45.50;102395.09;4966824;28;1144;-54
2023/12/16 09:43:28;;;;;;;;;;;;;;;17.47;43.70;102393.91;4957921;28;1911;-52
2023/12/16 09:45:53;;;;;;;;;;;;;;;16.28;45.69;102396.78;4965021;28;1755;-54
2023/12/16 09:48:19;;;;;;;;;;;;;;;17.33;44.24;102405.22;4971080;28;1113;-51
2023/12/16 09:50:44;;;;;;;;;;;;;;;17.23;43.68;102403.97;4968256;28;1169;-54
2023/12/16 09:53:10;;;;;;;;;;;;;;;16.27;45.53;102407.47;4960475;28;1251;-54
2023/12/16 09:55:36;;;;;;;;;;;;;;;15.94;45.51;102405.38;4967904;28;1046;-54
2023/12/16 09:58:02;;;;;;;;;;;;;;;17.10;44.25;102398.41;4960499;28;1004;-52
2023/12/16 10:00:30;;;;;;;;;;;;;;;16.16;45.67;102405.31;4962784;28;2361;-55
2023/12/16 10:02:57;;;;;;;;;;;;;;;16.51;46.03;102410.84;4958012;28;1898;-54
2023/12/16 10:05:26;;;;;;;;;;;;;;;16.40;45.49;102413.09;4967929;28;1432;-53
2023/12/16 10:07:56;;;;;;;;;;;;;;;17.18;44.51;102413.97;4977072;28;1049;-56
2023/12/16 10:10:22;;;;;;;;;;;;;;;18.03;42.24;102413.28;4969832;28;1136;-53
2023/12/16 10:12:47;;;;;;;;;;;;;;;16.49;45.05;102422.44;4963797;28;1100;-53
2023/12/16 10:15:21;;;;;;;;;;;;;;;17.31;44.32;102422.22;4965248;28;1139;-53
2023/12/16 10:17:49;;;;;;;;;;;;;;;16.99;44.25;102418.34;4951677;28;1015;-55
2023/12/16 10:20:15;;;;;;;;;;;;;;;16.26;45.36;102413.75;4975075;28;1010;-59
2023/12/16 10:22:40;;;;;;;;;;;;;;;17.41;43.80;102418.16;4957952;28;1006;-59
2023/12/16 10:25:06;;;;;;;;;;;;;;;16.35;45.33;102420.44;4957880;28;1930;-55
2023/12/16 10:27:32;;;;;;;;;;;;;;;15.91;45.55;102415.19;4977156;28;1001;-57
2023/12/16 10:29:57;;;;;;;;;;;;;;;17.49;43.87;102412.44;4974693;28;2285;-59
2023/12/16 10:32:23;;;;;;;;;;;;;;;16.27;45.48;102412.78;4964851;28;1060;-56
2023/12/16 10:34:50;;;;;;;;;;;;;;;15.98;46.06;102425.56;4968789;28;1109;-56
2023/12/16 10:37:16;;;;;;;;;;;;;;;16.85;44.82;102428.78;4964352;28;1045;-56
2023/12/16 10:39:42;;;;;;;;;;;;;;;15.98;45.71;102425.56;4963190;28;1248;-59
2023/12/16 10:42:07;;;;;;;;;;;;;;;16.30;46.23;102422.44;4977132;28;1064;-55
2023/12/16 10:44:33;;;;;;;;;;;;;;;16.80;44.67;102410.38;4972857;28;1914;-58
2023/12/16 10:46:59;;;;;;;;;;;;;;;16.00;45.70;102427.22;4975736;28;974;-56
2023/12/16 10:49:28;;;;;;;;;;;;;;;17.75;43.38;102436.88;4976901;28;1131;-57
2023/12/16 10:51:53;;;;;;;;;;;;;;;16.50;45.31;102421.50;4969802;28;1081;-56
2023/12/16 10:54:25;;;;;;;;;;;;;;;15.90;45.92;102416.13;4957076;28;1110;-56
2023/12/16 10:57:04;;;;;;;;;;;;;;;17.14;44.25;102421.22;4976194;28;1028;-58
2023/12/16 10:59:32;;;;;;;;;;;;;;;15.96;45.89;102428.28;4970073;28;1161;-55
2023/12/16 11:01:58;;;;;;;;;;;;;;;17.99;42.92;102431.22;4960418;28;2521;-57
2023/12/16 11:04:23;;;;;;;;;;;;;;;16.88;44.57;102426.81;4971577;28;1981;-58
2023/12/16 11:06:51;;;;;;;;;;;;;;;16.15;45.42;102420.38;4967414;28;1040;-59
2023/12/16 11:09:17;;;;;;;;;;;;;;;17.66;43.33;102426.69;4962594;28;1153;-59
2023/12/16 11:11:43;;;;;;;;;;;;;;;16.35;45.56;102434.56;4974784;28;873;-57
2023/12/16 11:14:08;;;;;;;;;;;;;;;16.04;46.48;102443.88;4976962;28;1077;-58
2023/12/16 11:16:43;;;;;;;;;;;;;;;17.24;43.77;102445.59;4975214;28;1062;-57
2023/12/16 11:19:09;;;;;;;;;;;;;;;16.07;45.81;102449.06;4975592;28;1096;-54
2023/12/16 11:21:34;;;;;;;;;;;;;;;17.91;42.79;102441.41;4964588;28;1111;-55
2023/12/16 11:24:01;;;;;;;;;;;;;;;16.84;44.59;102443.88;4970144;28;1975;-56
2023/12/16 11:26:27;;;;;;;;;;;;;;;16.13;45.78;102429.38;4976905;28;1111;-54
2023/12/16 11:28:54;;;;;;;;;;;;;;;17.48;44.04;102446.16;4963053;28;1072;-58
2023/12/16 11:31:19;;;;;;;;;;;;;;;16.50;45.16;102440.97;4973147;28;2586;-58
2023/12/16 11:33:45;;;;;;;;;;;;;;;17.82;43.05;102443.59;4957572;28;1471;-53
2023/12/16 11:36:11;;;;;;;;;;;;;;;17.95;42.20;102449.16;4970649;28;908;-54
2023/12/16 11:38:42;;;;;;;;;;;;;;;16.60;45.04;102443.22;4958372;28;1170;-54
2023/12/16 11:41:11;;;;;;;;;;;;;;;16.24;45.10;102445.69;4969234;28;1215;-55
2023/12/16 11:43:46;;;;;;;;;;;;;;;17.45;43.62;102448.13;4970780;28;1914;-56
2023/12/16 11:46:30;;;;;;;;;;;;;;;16.33;45.24;102443.53;4969720;28;985;-57
2023/12/16 11:48:56;;;;;;;;;;;;;;;16.65;45.53;102450.03;4966104;28;981;-52
2023/12/16 11:51:21;;;;;;;;;;;;;;;16.95;44.47;102437.19;4963301;28;1152;-57
2023/12/16 11:53:47;;;;;;;;;;;;;;;16.18;45.32;102451.25;4957970;28;1066;-59
2023/12/16 11:56:12;;;;;;;;;;;;;;;16.06;46.58;102443.81;4965571;28;1078;-55
2023/12/16 11:58:38;;;;;;;;;;;;;;;16.69;45.03;102441.91;4958446;28;1100;-55
2023/12/16 12:01:04;;;;;;;;;;;;;;;16.38;46.55;102446.84;4971565;28;2290;-56
2023/12/16 12:03:29;;;;;;;;;;;;;;;18.32;42.14;102454.38;4979025;28;1906;-54
2023/12/16 12:05:55;;;;;;;;;;;;;;;16.78;45.00;102457.47;4978129;28;1176;-56
2023/12/16 12:08:20;;;;;;;;;;;;;;;16.20;45.32;102448.53;4979806;28;1131;-54
2023/12/16 12:10:46;;;;;;;;;;;;;;;17.55;44.00;102453.88;4965544;28;1172;-53
2023/12/16 12:13:11;;;;;;;;;;;;;;;16.34;45.51;102453.22;4960300;29;1064;-54
2023/12/16 12:15:37;;;;;;;;;;;;;;;16.32;46.33;102452.41;4962798;28;1057;-54
2023/12/16 12:18:03;;;;;;;;;;;;;;;16.97;44.61;102445.94;4979459;28;1088;-55
2023/12/16 12:20:28;;;;;;;;;;;;;;;16.11;46.13;102447.13;4979028;28;1037;-57
2023/12/16 12:22:55;;;;;;;;;;;;;;;18.19;42.35;102454.19;4971078;28;1879;-56
2023/12/16 12:25:21;;;;;;;;;;;;;;;16.79;44.62;102452.97;4979044;28;1072;-56
2023/12/16 12:27:48;;;;;;;;;;;;;;;16.26;45.41;102449.13;4969769;28;1132;-57
2023/12/16 12:30:19;;;;;;;;;;;;;;;17.46;43.69;102460.50;4962643;28;2493;-54
2023/12/16 12:32:45;;;;;;;;;;;;;;;16.36;45.20;102459.34;4969150;28;1082;-56
2023/12/16 12:35:13;;;;;;;;;;;;;;;16.06;46.01;102462.41;4959964;28;1085;-55
2023/12/16 12:37:39;;;;;;;;;;;;;;;17.09;44.16;102463.13;4969554;28;1117;-58
2023/12/16 12:40:15;;;;;;;;;;;;;;;16.13;46.43;102467.38;4978219;28;1100;-56